createdAt,value
2017-11-16T00:01:49.990Z,14.38
2017-11-16T00:04:16.877Z,15.27
2017-11-16T00:06:43.835Z,16.12
2017-11-16T00:09:10.723Z,12.70
2017-11-16T00:11:37.650Z,12.45
2017-11-16T00:14:04.630Z,11.12
2017-11-16T00:16:31.606Z,17.33
2017-11-16T00:18:59.553Z,14.80
2017-11-16T00:21:26.473Z,13.82
2017-11-16T00:23:54.136Z,12.20
2017-11-16T00:26:21.082Z,11.98
2017-11-16T00:28:47.953Z,14.23
2017-11-16T00:31:14.896Z,11.73
2017-11-16T00:33:41.849Z,12.57
2017-11-16T00:36:08.784Z,12.63
2017-11-16T00:38:35.657Z,11.00
2017-11-16T00:41:02.600Z,11.52
2017-11-16T00:43:29.580Z,11.05
2017-11-16T00:45:56.448Z,12.50
2017-11-16T00:48:24.049Z,10.50
2017-11-16T00:50:50.990Z,11.82
2017-11-16T00:53:17.861Z,13.68
2017-11-16T00:55:44.707Z,12.27
2017-11-16T00:58:11.657Z,11.40
2017-11-16T01:00:38.558Z,12.68
2017-11-16T01:03:05.512Z,12.45
2017-11-16T01:05:32.454Z,14.18
2017-11-16T01:07:59.396Z,12.00
2017-11-16T01:10:26.348Z,14.35
2017-11-16T01:12:53.227Z,12.37
2017-11-16T01:15:20.184Z,12.50
2017-11-16T01:17:47.121Z,14.98
2017-11-16T01:20:13.994Z,15.48
2017-11-16T01:22:41.680Z,13.20
2017-11-16T01:25:08.577Z,14.18
2017-11-16T01:27:35.521Z,13.38
2017-11-16T01:30:02.429Z,14.13
2017-11-16T01:32:29.370Z,12.35
2017-11-16T01:34:56.329Z,11.27
2017-11-16T01:37:23.218Z,13.73
2017-11-16T01:39:50.163Z,13.27
2017-11-16T01:42:17.043Z,14.43
2017-11-16T01:44:43.997Z,13.95
2017-11-16T01:47:10.941Z,13.00
2017-11-16T01:49:37.888Z,13.13
2017-11-16T01:52:04.756Z,11.70
2017-11-16T01:54:31.697Z,13.38
2017-11-16T01:56:58.596Z,13.90
2017-11-16T01:59:26.302Z,13.45
2017-11-16T02:01:53.271Z,12.57
2017-11-16T02:04:20.265Z,13.27
2017-11-16T02:06:47.927Z,12.15
2017-11-16T02:09:15.641Z,11.40
2017-11-16T02:11:42.634Z,13.50
2017-11-16T02:14:09.572Z,12.32
2017-11-16T02:16:36.424Z,12.05
2017-11-16T02:19:04.156Z,11.50
2017-11-16T02:21:31.121Z,10.63
2017-11-16T02:23:58.889Z,12.05
2017-11-16T02:26:25.973Z,10.20
2017-11-16T02:28:52.878Z,11.65
2017-11-16T02:31:19.821Z,10.10
2017-11-16T02:33:46.938Z,10.10
2017-11-16T02:36:13.886Z,9.85
2017-11-16T02:38:40.914Z,8.88
2017-11-16T02:41:07.873Z,10.18
2017-11-16T02:43:34.924Z,11.73
2017-11-16T02:46:01.871Z,12.27
2017-11-16T02:48:28.985Z,11.18
2017-11-16T02:50:56.690Z,13.62
2017-11-16T02:53:23.765Z,11.90
2017-11-16T02:55:50.785Z,12.57
2017-11-16T02:58:17.796Z,12.75
2017-11-16T03:00:45.494Z,13.07
2017-11-16T03:03:12.381Z,10.43
2017-11-16T03:05:39.349Z,11.50
2017-11-16T03:08:06.332Z,10.77
2017-11-16T03:10:33.303Z,9.32
2017-11-16T03:13:00.219Z,11.80
2017-11-16T03:15:27.131Z,11.43
2017-11-16T03:17:54.839Z,8.02
2017-11-16T03:20:21.716Z,9.50
2017-11-16T03:22:48.690Z,7.37
2017-11-16T03:25:16.330Z,13.23
2017-11-16T03:27:43.407Z,9.43
2017-11-16T03:30:10.316Z,9.52
2017-11-16T03:32:37.288Z,7.87
2017-11-16T03:35:04.965Z,10.55
2017-11-16T03:37:31.910Z,9.30
2017-11-16T03:39:58.888Z,7.57
2017-11-16T03:42:25.765Z,9.23
2017-11-16T03:44:52.728Z,9.00
2017-11-16T03:47:19.674Z,10.50
2017-11-16T03:49:47.461Z,10.52
2017-11-16T03:52:14.444Z,9.30
2017-11-16T03:54:41.392Z,6.53
2017-11-16T03:57:08.347Z,7.10
2017-11-16T03:59:35.218Z,6.20
2017-11-16T04:02:02.099Z,6.50
2017-11-16T04:04:29.042Z,7.45
2017-11-16T04:06:55.900Z,4.80
2017-11-16T04:09:22.833Z,5.95
2017-11-16T04:11:49.775Z,6.35
2017-11-16T04:14:16.770Z,6.37
2017-11-16T04:16:43.740Z,5.80
2017-11-16T04:19:10.647Z,5.70
2017-11-16T04:21:37.694Z,6.70
2017-11-16T04:24:04.605Z,5.50
2017-11-16T04:26:32.337Z,5.95
2017-11-16T04:28:59.245Z,6.10
2017-11-16T04:31:26.201Z,8.18
2017-11-16T04:33:53.172Z,9.40
2017-11-16T04:36:20.074Z,6.97
2017-11-16T04:38:46.954Z,9.23
2017-11-16T04:41:13.911Z,9.00
2017-11-16T04:43:40.782Z,8.48
2017-11-16T04:46:08.545Z,10.60
2017-11-16T04:48:35.429Z,10.48
2017-11-16T04:51:02.361Z,8.85
2017-11-16T04:53:29.242Z,8.88
2017-11-16T04:55:56.120Z,11.55
2017-11-16T04:58:23.749Z,8.35
2017-11-16T05:00:50.702Z,10.02
2017-11-16T05:03:18.057Z,8.95
2017-11-16T05:05:44.997Z,9.05
2017-11-16T05:08:11.973Z,10.45
2017-11-16T05:10:38.847Z,9.60
2017-11-16T05:13:05.802Z,9.18
2017-11-16T05:15:32.766Z,10.50
2017-11-16T05:17:59.701Z,8.02
2017-11-16T05:20:26.603Z,9.65
2017-11-16T05:22:54.623Z,10.60
2017-11-16T05:25:23.257Z,11.25
2017-11-16T05:30:37.163Z,9.30
2017-11-16T05:33:04.196Z,10.77
2017-11-16T05:35:31.179Z,15.15
2017-11-16T05:37:58.152Z,11.48
2017-11-16T05:40:25.029Z,13.05
2017-11-16T05:42:52.655Z,14.63
2017-11-16T05:45:19.634Z,10.60
2017-11-16T05:47:47.290Z,13.50
2017-11-16T05:50:15.579Z,10.05
2017-11-16T05:52:43.213Z,19.10
2017-11-16T05:55:10.120Z,12.60
2017-11-16T05:57:37.144Z,12.75
2017-11-16T06:00:04.118Z,11.65
2017-11-16T06:02:31.065Z,14.50
2017-11-16T06:04:58.004Z,12.32
2017-11-16T06:07:24.946Z,14.30
2017-11-16T06:09:52.902Z,14.75
2017-11-16T06:12:19.861Z,13.45
2017-11-16T06:14:46.768Z,14.48
2017-11-16T06:17:14.999Z,15.25
2017-11-16T06:19:41.963Z,15.13
2017-11-16T06:22:08.861Z,13.70
2017-11-16T06:24:35.983Z,15.82
2017-11-16T06:27:03.672Z,15.38
2017-11-16T06:29:30.696Z,15.25
2017-11-16T06:31:58.557Z,17.55
2017-11-16T06:34:28.659Z,16.58
2017-11-16T06:36:56.586Z,18.17
2017-11-16T06:39:23.453Z,18.10
2017-11-16T06:41:50.394Z,24.60
2017-11-16T06:44:17.260Z,17.52
2017-11-16T06:46:44.144Z,18.77
2017-11-16T06:49:11.877Z,19.30
2017-11-16T06:51:38.753Z,22.83
2017-11-16T06:54:05.720Z,20.10
2017-11-16T06:56:32.599Z,18.50
2017-11-16T06:58:59.540Z,17.90
2017-11-16T07:01:26.437Z,18.12
2017-11-16T07:03:54.146Z,22.42
2017-11-16T07:06:21.010Z,15.95
2017-11-16T07:08:47.905Z,16.80
2017-11-16T07:11:14.862Z,18.70
2017-11-16T07:13:41.829Z,22.90
2017-11-16T07:16:08.721Z,22.40
2017-11-16T07:18:36.473Z,13.93
2017-11-16T07:21:03.399Z,16.60
2017-11-16T07:23:30.407Z,14.95
2017-11-16T07:25:57.295Z,16.35
2017-11-16T07:28:24.298Z,17.67
2017-11-16T07:30:51.209Z,16.00
2017-11-16T07:33:18.920Z,14.23
2017-11-16T07:35:45.825Z,16.67
2017-11-16T07:38:13.502Z,13.60
2017-11-16T07:40:54.113Z,12.90
2017-11-16T07:43:21.035Z,13.23
2017-11-16T07:45:47.981Z,13.60
2017-11-16T07:48:14.837Z,12.73
2017-11-16T07:50:41.857Z,13.15
2017-11-16T07:53:09.618Z,15.57
2017-11-16T07:55:36.472Z,12.82
2017-11-16T07:58:03.504Z,12.37
2017-11-16T08:00:31.119Z,12.18
2017-11-16T08:02:58.000Z,11.77
2017-11-16T08:05:24.958Z,13.32
2017-11-16T08:07:52.616Z,15.75
2017-11-16T08:10:20.287Z,13.65
2017-11-16T08:12:47.216Z,13.80
2017-11-16T08:15:14.096Z,11.98
2017-11-16T08:17:41.024Z,14.85
2017-11-16T08:20:07.969Z,13.40
2017-11-16T08:22:35.591Z,13.60
2017-11-16T08:25:02.562Z,22.37
2017-11-16T08:27:29.529Z,14.30
2017-11-16T08:29:57.208Z,13.52
2017-11-16T08:32:24.152Z,15.30
2017-11-16T08:34:51.024Z,17.37
2017-11-16T08:37:17.974Z,16.65
2017-11-16T08:39:44.956Z,14.27
2017-11-16T08:42:11.846Z,14.52
2017-11-16T08:44:38.824Z,15.07
2017-11-16T08:47:09.226Z,15.27
2017-11-16T08:49:38.269Z,16.10
2017-11-16T08:52:06.173Z,16.23
2017-11-16T08:54:33.198Z,16.85
2017-11-16T08:57:00.957Z,18.52
2017-11-16T08:59:27.992Z,17.70
2017-11-16T09:01:54.964Z,15.68
2017-11-16T09:04:22.753Z,17.15
2017-11-16T09:06:49.698Z,17.12
2017-11-16T09:09:16.715Z,15.43
2017-11-16T09:11:43.631Z,15.30
2017-11-16T09:14:10.630Z,14.65
2017-11-16T09:16:37.582Z,16.17
2017-11-16T09:19:04.560Z,13.43
2017-11-16T09:21:31.585Z,15.20
2017-11-16T09:23:58.533Z,14.35
2017-11-16T09:26:25.513Z,12.70
2017-11-16T09:28:52.558Z,12.27
2017-11-16T09:31:19.617Z,12.10
2017-11-16T09:33:46.537Z,13.40
2017-11-16T09:36:13.505Z,11.70
2017-11-16T09:38:40.538Z,11.82
2017-11-16T09:41:07.564Z,11.82
2017-11-16T09:43:34.462Z,11.12
2017-11-16T09:46:01.455Z,11.55
2017-11-16T09:48:28.352Z,11.20
2017-11-16T09:50:55.241Z,10.20
2017-11-16T09:53:22.192Z,10.67
2017-11-16T09:55:49.194Z,11.63
2017-11-16T09:58:16.102Z,12.27
2017-11-16T10:00:43.119Z,11.87
2017-11-16T10:03:10.059Z,13.43
2017-11-16T10:05:37.747Z,12.00
2017-11-16T10:08:04.601Z,13.35
2017-11-16T10:10:31.467Z,12.25
2017-11-16T10:12:58.497Z,12.75
2017-11-16T10:15:25.387Z,11.90
2017-11-16T10:17:52.251Z,11.30
2017-11-16T10:20:19.944Z,11.68
2017-11-16T10:22:46.885Z,13.57
2017-11-16T10:25:13.801Z,13.20
2017-11-16T10:27:41.422Z,12.20
2017-11-16T10:30:08.399Z,14.82
2017-11-16T10:32:36.201Z,13.07
2017-11-16T10:35:03.098Z,12.48
2017-11-16T10:37:30.045Z,12.50
2017-11-16T10:39:56.942Z,12.32
2017-11-16T10:42:23.885Z,12.85
2017-11-16T10:44:50.878Z,13.35
2017-11-16T10:47:19.102Z,13.20
2017-11-16T10:49:46.073Z,13.62
2017-11-16T10:52:13.096Z,13.13
2017-11-16T10:54:40.134Z,12.20
2017-11-16T10:57:07.041Z,12.20
2017-11-16T10:59:34.031Z,14.35
2017-11-16T11:02:02.649Z,12.00
2017-11-16T11:04:29.537Z,12.73
2017-11-16T11:07:01.047Z,11.63
2017-11-16T11:09:27.997Z,12.87
2017-11-16T11:11:55.111Z,11.82
2017-11-16T11:14:21.981Z,13.50
2017-11-16T11:16:48.862Z,14.50
2017-11-16T11:19:15.865Z,12.27
2017-11-16T11:21:44.497Z,12.07
2017-11-16T11:24:13.149Z,11.85
2017-11-16T11:26:40.200Z,11.80
2017-11-16T11:29:07.154Z,12.98
2017-11-16T11:31:34.115Z,15.57
2017-11-16T11:34:00.997Z,13.67
2017-11-16T11:36:30.517Z,12.57
2017-11-16T11:38:57.436Z,12.85
2017-11-16T11:41:24.369Z,12.80
2017-11-16T11:43:52.109Z,14.43
2017-11-16T11:46:19.064Z,11.93
2017-11-16T11:48:46.026Z,14.00
2017-11-16T11:51:12.973Z,12.77
2017-11-16T11:53:39.884Z,12.50
2017-11-16T11:56:06.778Z,13.15
2017-11-16T11:58:33.742Z,12.95
2017-11-16T12:01:01.822Z,11.18
2017-11-16T12:03:28.788Z,11.75
2017-11-16T12:05:55.657Z,15.45
2017-11-16T12:08:23.897Z,13.00
2017-11-16T12:10:50.861Z,12.15
2017-11-16T12:13:17.867Z,12.57
2017-11-16T12:15:57.357Z,12.50
2017-11-16T12:18:30.234Z,12.37
2017-11-16T12:21:04.916Z,13.60
2017-11-16T12:23:32.394Z,12.70
2017-11-16T12:26:09.422Z,12.05
2017-11-16T12:28:36.695Z,12.43
2017-11-16T12:31:04.361Z,12.15
2017-11-16T12:33:31.358Z,10.90
2017-11-16T12:35:58.341Z,11.70
2017-11-16T12:38:26.503Z,11.73
2017-11-16T12:40:53.597Z,11.60
2017-11-16T12:43:21.279Z,10.60
2017-11-16T12:45:49.267Z,14.63
2017-11-16T12:48:16.214Z,17.07
2017-11-16T12:50:43.537Z,13.75
2017-11-16T12:53:11.235Z,12.50
2017-11-16T12:55:38.632Z,12.07
2017-11-16T12:58:05.609Z,14.27
2017-11-16T13:00:33.263Z,13.43
2017-11-16T13:03:05.296Z,12.07
2017-11-16T13:05:32.757Z,12.80
2017-11-16T13:07:59.776Z,14.00
2017-11-16T13:10:26.735Z,13.57
2017-11-16T13:12:53.684Z,16.52
2017-11-16T13:15:20.621Z,15.43
2017-11-16T13:17:47.911Z,16.20
2017-11-16T13:20:21.317Z,15.40
2017-11-16T13:22:48.478Z,16.33
2017-11-16T13:25:16.306Z,16.27
2017-11-16T13:27:43.212Z,17.93
2017-11-16T13:30:10.189Z,16.05
2017-11-16T13:32:37.041Z,15.30
2017-11-16T13:35:03.911Z,17.12
2017-11-16T13:37:30.845Z,16.85
2017-11-16T13:40:00.167Z,16.70
2017-11-16T13:42:27.259Z,16.67
2017-11-16T13:44:54.139Z,15.48
2017-11-16T13:47:21.026Z,16.33
2017-11-16T13:49:47.989Z,16.40
2017-11-16T13:52:15.017Z,14.20
2017-11-16T13:54:42.775Z,13.48
2017-11-16T13:57:13.879Z,13.75
2017-11-16T13:59:40.892Z,16.17
2017-11-16T14:02:07.817Z,16.20
2017-11-16T14:04:34.686Z,15.50
2017-11-16T14:07:08.998Z,15.18
2017-11-16T14:09:41.850Z,15.18
2017-11-16T14:12:10.128Z,16.12
2017-11-16T14:14:37.009Z,15.27
2017-11-16T14:17:04.721Z,14.63
2017-11-16T14:19:31.928Z,14.10
2017-11-16T14:21:58.865Z,14.55
2017-11-16T14:24:25.813Z,15.68
2017-11-16T14:26:52.801Z,16.10
2017-11-16T14:29:19.702Z,16.10
2017-11-16T14:31:47.486Z,14.45
2017-11-16T14:34:14.478Z,15.30
2017-11-16T14:36:43.701Z,13.90
2017-11-16T14:39:10.812Z,13.90
2017-11-16T14:41:37.697Z,16.05
2017-11-16T14:44:05.354Z,14.82
2017-11-16T14:46:33.109Z,13.88
2017-11-16T14:48:59.983Z,13.27
2017-11-16T14:51:26.871Z,14.35
2017-11-16T14:53:53.844Z,14.50
2017-11-16T14:56:20.736Z,14.63
2017-11-16T14:58:47.911Z,13.15
2017-11-16T15:01:16.313Z,18.45
2017-11-16T15:03:45.721Z,18.23
2017-11-16T15:06:12.720Z,16.73
2017-11-16T15:08:39.685Z,17.70
2017-11-16T15:11:06.621Z,19.58
2017-11-16T15:13:33.561Z,20.30
2017-11-16T15:16:00.509Z,20.05
2017-11-16T15:18:27.449Z,18.50
2017-11-16T15:20:54.405Z,19.37
2017-11-16T15:23:21.299Z,23.20
2017-11-16T15:25:48.280Z,22.30
2017-11-16T15:28:15.201Z,25.50
2017-11-16T15:30:42.899Z,21.90
2017-11-16T15:33:09.932Z,22.30
2017-11-16T15:35:36.869Z,22.08
2017-11-16T15:38:09.931Z,22.50
2017-11-16T15:40:37.136Z,27.02
2017-11-16T15:43:04.030Z,23.17
2017-11-16T15:45:30.973Z,25.33
2017-11-16T15:47:57.857Z,26.15
2017-11-16T15:50:25.577Z,28.42
2017-11-16T15:52:52.454Z,26.85
2017-11-16T15:55:20.169Z,32.13
2017-11-16T15:57:47.185Z,28.92
2017-11-16T16:00:14.099Z,32.25
2017-11-16T16:02:41.146Z,30.80
2017-11-16T16:05:08.116Z,29.77
2017-11-16T16:07:35.751Z,30.15
2017-11-16T16:10:02.740Z,30.67
2017-11-16T16:12:29.689Z,30.83
2017-11-16T16:14:56.577Z,30.65
2017-11-16T16:17:23.556Z,32.22
2017-11-16T16:19:51.256Z,33.90
2017-11-16T16:22:18.229Z,31.12
2017-11-16T16:24:46.123Z,29.60
2017-11-16T16:27:13.014Z,33.50
2017-11-16T16:29:42.854Z,31.23
2017-11-16T16:32:10.040Z,30.33
2017-11-16T16:34:39.667Z,31.30
2017-11-16T16:37:07.704Z,36.38
2017-11-16T16:39:37.208Z,31.58
2017-11-16T16:42:11.235Z,30.95
2017-11-16T16:44:38.874Z,33.65
2017-11-16T16:47:07.807Z,32.20
2017-11-16T16:49:43.341Z,32.10
2017-11-16T16:52:11.083Z,33.15
2017-11-16T16:54:37.978Z,29.42
2017-11-16T16:59:51.543Z,30.73
2017-11-16T17:02:23.006Z,30.35
2017-11-16T17:04:50.588Z,29.77
2017-11-16T17:07:17.488Z,29.85
2017-11-16T17:09:46.106Z,36.03
2017-11-16T17:12:13.913Z,33.13
2017-11-16T17:14:47.610Z,30.27
2017-11-16T17:17:14.515Z,31.73
2017-11-16T17:19:41.410Z,30.40
2017-11-16T17:22:09.170Z,31.42
2017-11-16T17:24:36.068Z,32.00
2017-11-16T17:27:07.332Z,30.02
2017-11-16T17:29:34.543Z,25.65
2017-11-16T17:32:05.894Z,29.60
2017-11-16T17:34:34.113Z,24.20
2017-11-16T17:37:01.011Z,30.45
2017-11-16T17:39:27.966Z,28.67
2017-11-16T17:41:54.972Z,27.10
2017-11-16T17:44:21.854Z,26.37
2017-11-16T17:46:48.736Z,24.87
2017-11-16T17:49:15.681Z,24.60
2017-11-16T17:51:42.569Z,26.60
2017-11-16T17:54:09.460Z,21.92
2017-11-16T17:56:36.404Z,23.27
2017-11-16T17:59:03.298Z,25.45
2017-11-16T18:01:30.186Z,25.25
2017-11-16T18:03:57.169Z,24.17
2017-11-16T18:06:24.048Z,27.75
2017-11-16T18:08:51.753Z,26.83
2017-11-16T18:11:18.701Z,24.35
2017-11-16T18:13:45.645Z,24.40
2017-11-16T18:16:12.617Z,23.60
2017-11-16T18:18:39.580Z,28.52
2017-11-16T18:21:06.532Z,23.38
2017-11-16T18:23:33.407Z,23.55
2017-11-16T18:26:00.403Z,22.77
2017-11-16T18:28:27.311Z,23.35
2017-11-16T18:30:54.225Z,23.15
2017-11-16T18:33:21.922Z,22.95
2017-11-16T18:35:48.858Z,21.83
2017-11-16T18:38:15.867Z,23.70
2017-11-16T18:40:42.802Z,23.33
2017-11-16T18:43:09.748Z,21.73
2017-11-16T18:45:36.713Z,21.67
2017-11-16T18:48:03.691Z,25.40
2017-11-16T18:50:30.714Z,22.75
2017-11-16T18:52:57.755Z,23.15
2017-11-16T18:55:24.649Z,23.40
2017-11-16T18:57:51.822Z,25.55
2017-11-16T19:00:30.981Z,23.02
2017-11-16T19:02:59.734Z,23.87
2017-11-16T19:05:26.621Z,24.15
2017-11-16T19:07:53.501Z,25.92
2017-11-16T19:10:20.433Z,23.48
2017-11-16T19:12:47.413Z,25.52
2017-11-16T19:15:14.395Z,24.08
2017-11-16T19:17:42.005Z,26.05
2017-11-16T19:20:08.884Z,27.33
2017-11-16T19:22:35.844Z,24.98
2017-11-16T19:25:02.760Z,28.20
2017-11-16T19:27:30.231Z,26.33
2017-11-16T19:29:57.121Z,27.02
2017-11-16T19:32:24.845Z,28.52
2017-11-16T19:35:07.190Z,25.65
2017-11-16T19:37:35.159Z,28.48
2017-11-16T19:40:02.781Z,27.73
2017-11-16T19:42:30.241Z,23.60
2017-11-16T19:44:57.196Z,24.55
2017-11-16T19:47:24.309Z,24.37
2017-11-16T19:49:51.210Z,26.77
2017-11-16T19:52:18.168Z,23.30
2017-11-16T19:54:45.845Z,28.90
2017-11-16T19:57:12.814Z,25.27
2017-11-16T19:59:39.745Z,24.60
2017-11-16T20:02:06.736Z,26.40
2017-11-16T20:04:33.738Z,26.80
2017-11-16T20:07:00.598Z,23.65
2017-11-16T20:09:27.612Z,23.95
2017-11-16T20:11:55.239Z,24.65
2017-11-16T20:14:22.304Z,24.10
2017-11-16T20:16:49.231Z,24.05
2017-11-16T20:19:16.137Z,25.75
2017-11-16T20:21:43.336Z,23.65
2017-11-16T20:24:10.982Z,23.98
2017-11-16T20:26:39.148Z,24.17
2017-11-16T20:29:09.313Z,22.90
2017-11-16T20:31:36.457Z,23.45
2017-11-16T20:34:03.437Z,24.87
2017-11-16T20:36:30.397Z,22.55
2017-11-16T20:39:01.375Z,22.05
2017-11-16T20:41:43.186Z,23.27
2017-11-16T20:44:17.341Z,24.58
2017-11-16T20:46:50.354Z,23.92
2017-11-16T20:49:33.630Z,21.50
2017-11-16T20:52:00.841Z,24.33
2017-11-16T20:54:29.026Z,23.33
2017-11-16T20:56:56.727Z,22.10
2017-11-16T20:59:23.821Z,22.58
2017-11-16T21:01:50.694Z,23.80
2017-11-16T21:04:17.657Z,25.75
2017-11-16T21:06:44.520Z,21.98
2017-11-16T21:09:12.227Z,21.85
2017-11-16T21:11:39.175Z,25.20
2017-11-16T21:14:08.075Z,24.45
2017-11-16T21:16:35.087Z,22.02
2017-11-16T21:19:01.955Z,22.52
2017-11-16T21:21:28.899Z,23.87
2017-11-16T21:23:55.775Z,23.23
2017-11-16T21:26:36.550Z,25.40
2017-11-16T21:29:04.438Z,21.30
2017-11-16T21:31:32.113Z,22.70
2017-11-16T21:33:59.719Z,23.50
2017-11-16T21:36:26.614Z,24.52
2017-11-16T21:38:54.280Z,22.23
2017-11-16T21:41:32.343Z,23.38
2017-11-16T21:44:14.475Z,23.27
2017-11-16T21:46:57.864Z,24.12
2017-11-16T21:49:40.802Z,21.80
2017-11-16T21:52:20.321Z,22.77
2017-11-16T21:57:42.385Z,22.33
2017-11-16T22:00:25.933Z,23.55
2017-11-16T22:03:06.413Z,23.42
2017-11-16T22:05:47.909Z,22.55
2017-11-16T22:08:30.764Z,24.60
2017-11-16T22:10:58.650Z,24.58
2017-11-16T22:13:25.530Z,23.35
2017-11-16T22:15:52.500Z,21.90
2017-11-16T22:18:21.113Z,23.12
2017-11-16T22:20:48.765Z,25.40
2017-11-16T22:23:16.673Z,26.25
2017-11-16T22:25:43.958Z,22.02
2017-11-16T22:28:10.955Z,23.45
2017-11-16T22:30:37.961Z,23.85
2017-11-16T22:33:20.555Z,23.02
2017-11-16T22:35:48.642Z,22.25
2017-11-16T22:38:16.397Z,22.10
2017-11-16T22:40:44.022Z,23.52
2017-11-16T22:43:14.009Z,21.85
2017-11-16T22:45:41.397Z,23.62
2017-11-16T22:48:08.579Z,25.80
2017-11-16T22:50:35.491Z,23.40
2017-11-16T22:53:02.979Z,24.65
2017-11-16T22:55:29.953Z,24.33
2017-11-16T22:57:57.579Z,24.23
2017-11-16T23:00:25.066Z,23.95
2017-11-16T23:02:52.170Z,26.20
2017-11-16T23:05:19.188Z,23.17
2017-11-16T23:07:47.247Z,23.52
2017-11-16T23:10:15.356Z,26.48
2017-11-16T23:12:42.255Z,23.92
2017-11-16T23:15:12.286Z,23.98
2017-11-16T23:17:39.473Z,25.12
2017-11-16T23:20:07.006Z,24.33
2017-11-16T23:22:46.251Z,24.55
2017-11-16T23:25:13.641Z,27.30
2017-11-16T23:27:40.598Z,26.23
2017-11-16T23:30:08.393Z,26.60
2017-11-16T23:32:36.568Z,25.55
2017-11-16T23:35:04.273Z,25.50
2017-11-16T23:37:37.641Z,25.42
2017-11-16T23:40:05.458Z,26.30
2017-11-16T23:42:32.509Z,27.52
2017-11-16T23:44:59.760Z,26.75
2017-11-16T23:47:26.844Z,26.23
2017-11-16T23:49:53.971Z,25.80
2017-11-16T23:52:21.445Z,25.33
2017-11-16T23:54:49.529Z,26.95
2017-11-16T23:57:16.500Z,26.00
2017-11-16T23:59:43.835Z,28.25
